Terminal Aerodrome Forecast
Issued by NWS

Home | Current Version | Previous Version | Graphics & Text | Print | Product List | Glossary On
Versions: 1 2 3 4 5 6 7 8 9 10 11 12 13 14 15 16 17
000
FTUS43 KMPX 261302 AAA
TAFRNH
TAF AMD
KRNH 261302Z 2613/2712 VRB03KT P6SM SKC
     FM261700 36005KT P6SM SKC
     FM270000 VRB02KT P6SM SKC
     FM270800 13002KT P6SM SCT250
      TEMPO 2708/2712 2SM BR SCT005=

USA.gov is the U.S. government's official web portal to all federal, state and local government web resources and services.